createdAt,value
2022-09-30T00:07:42.991Z,10.7
2022-09-30T00:22:53.254Z,18.1
2022-09-30T00:38:02.823Z,7.9
2022-09-30T00:53:12.452Z,8.6
2022-09-30T01:08:21.681Z,8.9
2022-09-30T01:23:31.030Z,9.8
2022-09-30T01:38:40.401Z,9.5
2022-09-30T01:53:49.434Z,10
2022-09-30T02:08:59.162Z,8.4
2022-09-30T02:24:08.606Z,8.5
2022-09-30T02:39:18.232Z,9.7
2022-09-30T02:54:27.774Z,9.9
2022-09-30T03:09:37.388Z,11.4
2022-09-30T03:24:46.712Z,12.5
2022-09-30T03:39:56.560Z,13.7
2022-09-30T03:55:06.434Z,10.2
2022-09-30T04:10:16.165Z,12.7
2022-09-30T04:25:25.860Z,13.9
2022-09-30T04:40:35.558Z,12.7
2022-09-30T04:55:44.993Z,10.6
2022-09-30T05:10:54.840Z,11.4
2022-09-30T05:26:11.216Z,11.5
2022-09-30T05:41:22.636Z,14.1
2022-09-30T05:56:32.017Z,16.8
2022-09-30T06:11:41.702Z,18.6
2022-09-30T06:26:51.220Z,14.7
2022-09-30T06:42:01.822Z,13.3
2022-09-30T06:57:11.677Z,17.1
2022-09-30T07:12:21.963Z,19.7
2022-09-30T07:27:31.572Z,16
2022-09-30T07:42:41.818Z,20.1
2022-09-30T07:57:52.112Z,16.3
2022-09-30T08:13:06.741Z,19.5
2022-09-30T08:28:16.893Z,17.8
2022-09-30T08:43:26.882Z,12.5
2022-09-30T08:58:37.195Z,11.5
2022-09-30T09:13:47.154Z,11.3
2022-09-30T09:28:56.715Z,11.6
2022-09-30T09:44:06.706Z,9.8
2022-09-30T09:59:20.891Z,10.7
2022-09-30T10:14:31.193Z,12.8
2022-09-30T10:29:40.658Z,12.4
2022-09-30T10:44:51.012Z,14.3
2022-09-30T11:00:03.988Z,15.6
2022-09-30T11:15:13.837Z,11.8
2022-09-30T11:30:23.755Z,9.3
2022-09-30T11:45:33.696Z,9.4
2022-09-30T12:00:47.811Z,5.7
2022-09-30T12:15:58.480Z,6.7
2022-09-30T12:31:07.749Z,7
2022-09-30T12:46:17.528Z,7.4
2022-09-30T13:01:27.774Z,6.1
2022-09-30T13:16:37.791Z,4.1
2022-09-30T13:31:47.605Z,5.7
2022-09-30T13:46:58.216Z,6.7
2022-09-30T14:02:07.066Z,7.4
2022-09-30T14:17:16.126Z,3.9
2022-09-30T14:32:25.784Z,6.8
2022-09-30T14:47:35.590Z,4.6
2022-09-30T15:02:45.134Z,4.2
2022-09-30T15:17:54.987Z,3.2
2022-09-30T15:33:04.098Z,4.2
2022-09-30T15:48:13.603Z,3.7
2022-09-30T16:03:23.063Z,2.7
2022-09-30T16:18:35.365Z,13.4
2022-09-30T16:33:44.532Z,4.2
2022-09-30T16:48:54.297Z,3.1
2022-09-30T17:04:03.653Z,3.9
2022-09-30T17:19:13.266Z,4.1
2022-09-30T17:34:22.490Z,4.4
2022-09-30T17:49:32.331Z,6.8
2022-09-30T18:04:41.433Z,8.1
2022-09-30T18:19:50.996Z,6.5
2022-09-30T18:35:03.657Z,8.2
2022-09-30T18:50:13.440Z,10.6
2022-09-30T19:05:22.973Z,7
2022-09-30T19:20:32.505Z,6
2022-09-30T19:35:42.008Z,4.5
2022-09-30T19:50:51.080Z,4.1
2022-09-30T20:06:00.167Z,4.1
2022-09-30T20:21:09.369Z,6.8
2022-09-30T20:36:18.939Z,4.2
2022-09-30T20:51:28.842Z,4.3
2022-09-30T21:06:38.601Z,5.7
2022-09-30T21:21:47.301Z,6.6
2022-09-30T21:36:56.342Z,5.7
2022-09-30T21:52:05.894Z,4.5
2022-09-30T22:07:15.249Z,3.9
2022-09-30T22:22:25.269Z,4.9
2022-09-30T22:37:34.583Z,3.7
2022-09-30T22:52:44.305Z,3.7
2022-09-30T23:07:53.740Z,4.9
2022-09-30T23:23:04.810Z,3.8
2022-09-30T23:38:14.238Z,3.9
2022-09-30T23:53:23.726Z,3.5
